Nashville, Tennessee
Traffic Map
Current Weather Conditions
Nashville, Tennessee
Broken Clouds
Broken Clouds
55°
Feels Like: 55°
Wind Chill: 55° Ceiling: 25000
Heat Index: 55° Visibility: 10mi
Dew Point: 13° Wind: 9mph
Humidity: 19% Direction: 220° (SW)
Pressure: 29.98in Gusts: 16mph
Raw Report DataKBNA 072153Z 22008G14KT 10SM FEW180 BKN250 13/M11 A2998 RMK AO2 SLP153 T01281106 $
Traffic Incident Summary
Active as of:
Severity:
Category:
InformationThere was an issue retrieving the traffic information for this location. Please try a different location or try again shortly.
Advertisements
Track Severe Weather on mobile